Nearby METAR Reports

 

EGEO - Oban, United Kingdom
Distance from station: SSW 18mi, 30km
Updated: 27/09/2020 17:50
NOT Current
Clear
Clear
 Wind from SW
Wind: SW 3 mph , 6 km/h
Temperature: 12°C
Dew Point: 6°C
Humidity: 67%
Barometer: 1014 hPa
Summary: Clear
Visibility: greater than 7 miles , 10 km
2020/09/27 16:50 EGEO 271650Z 22003KT 180V250 CAVOK 12/06 Q1014
EGPU - Tiree, United Kingdom
Distance from station: WSW 64mi, 103km
Updated: 28/09/2020 06:50
Mist, Mostly cloudy
Mist, Mostly cloudy
 Wind from S
Wind: S 22 mph , 35 km/h
Temperature: 13°C
Dew Point: 13°C
Humidity: 100%
Barometer: 1005 hPa
Summary: Mist
Clouds: Mostly cloudy
Visibility: 3 miles , 4 km
Cloud details: Partly cloudy 152 m
Mostly cloudy 457 m
2020/09/28 05:50 EGPU 280550Z AUTO 17019KT 4100 BR SCT005/// BKN015/// 13/13 Q1005 RERA
EGPF - Glasgow, United Kingdom
Distance from station: SSE 66mi, 107km
Updated: 28/09/2020 06:50
Overcast
Overcast
 Wind from ENE
Wind: ENE 5 mph , 7 km/h
Temperature: 7°C
Wind Chill: 6°C
Dew Point: 5°C
Humidity: 87%
Barometer: 1010 hPa
Clouds: Overcast
Visibility: 4 miles , 7 km
Cloud details: Overcast 274 m
2020/09/28 05:50 EGPF 280550Z AUTO 07004KT 7000 OVC009 07/05 Q1010
 
EGPE - Inverness, United Kingdom
Distance from station: NE 71mi, 114km
Updated: 28/09/2020 06:50
Partly cloudy
Partly cloudy
 Wind from varies
Wind: varies 1 mph , 2 km/h
Temperature: 9°C
Dew Point: 5°C
Humidity: 76%
Barometer: 1007 hPa
Clouds: Partly cloudy
Visibility: 6 miles , 10 km
Cloud details: Few Clouds 549 m
Partly cloudy 1097 m
2020/09/28 05:50 EGPE 280550Z VRB01KT 9999 FEW018 SCT036 09/05 Q1007
EGPI - Islay/Port Ellen, United Kingdom
Distance from station: SSW 81mi, 131km
Updated: 28/09/2020 06:50
Light rain, Drizzle, Partly cloudy
Light rain, Drizzle, Partly cloudy
 Wind from SSE
Wind: SSE 13 mph , 20 km/h
Temperature: 13°C
Dew Point: 12°C
Humidity: 94%
Barometer: 1008 hPa
Summary: Light rain, Drizzle
Clouds: Partly cloudy
Visibility: 5 miles , 8 km
Cloud details: Few Clouds 488 m
Partly cloudy 914 m
2020/09/28 05:50 EGPI 280550Z AUTO 15011KT 110V180 8000 -RADZ FEW016/// SCT030/// 13/12 Q1008
EGPN - Dundee/Riverside, United Kingdom
Distance from station: E 86mi, 138km
Updated: 28/09/2020 06:50
Clear
Clear
 Wind from calm
Wind: Calm
Temperature: 6°C
Dew Point: 5°C
Humidity: 93%
Barometer: 1010 hPa
Summary: Clear
Visibility: greater than 7 miles , 10 km
2020/09/28 05:50 EGPN 280550Z 00000KT CAVOK 06/05 Q1010
 
EGPK - Prestwick, United Kingdom
Distance from station: SSE 88mi, 141km
Updated: 28/09/2020 06:50
Few Clouds
Few Clouds
 Wind from calm
Wind: Calm
Temperature: 9°C
Dew Point: 8°C
Humidity: 94%
Barometer: 1010 hPa
Clouds: Few Clouds
Visibility: 5 miles , 8 km
Cloud details: Few Clouds 549 m
2020/09/28 05:50 EGPK 280550Z 00000KT 8000 FEW018 09/08 Q1010
EGPH - Edinburgh, United Kingdom
Distance from station: SE 89mi, 143km
Updated: 28/09/2020 06:50
Mostly cloudy
Mostly cloudy
 Wind from NNW
Wind: NNW 1 mph , 2 km/h
Temperature: 5°C
Dew Point: 5°C
Humidity: 100%
Barometer: 1010 hPa
Clouds: Mostly cloudy
Visibility: 6 miles , 10 km
Cloud details: Mostly cloudy 579 m
2020/09/28 05:50 EGPH 280550Z 33001KT 9999 BKN019 05/05 Q1010
EGQK - RAF Kinloss, United Kingdom
Distance from station: NE 90mi, 144km
Updated: 28/09/2020 06:50
Overcast
Overcast
 Wind from N
Wind: N 1 mph , 2 km/h
Temperature: 5°C
Dew Point: 4°C
Humidity: 93%
Barometer: 1007 hPa
Clouds: Overcast
Visibility: 6 miles , 10 km
Cloud details: Overcast 4877 m
2020/09/28 05:50 EGQK 280550Z AUTO 36001KT 9999 OVC160/// 05/04 Q1007
 
EGEC - Campbeltown, United Kingdom
Distance from station: S 90mi, 145km
Updated: 27/09/2020 11:20
NOT Current
Partly cloudy
Partly cloudy
 Wind from S
Wind: S 1 mph , 2 km/h
Temperature: 11°C
Dew Point: 7°C
Humidity: 77%
Barometer: 1016 hPa
Clouds: Partly cloudy
Visibility: 6 miles , 10 km
Cloud details: Partly cloudy 975 m
2020/09/27 10:20 EGEC 271020Z 17001KT 9999 SCT032 11/07 Q1016
EGQA - Tain Range, United Kingdom
Distance from station: NNE 91mi, 146km
Updated: 25/09/2020 12:50
NOT Current
Partly cloudy
Partly cloudy
 Wind from NW
Wind: NW 20 mph , 31 km/h
Clouds: Partly cloudy
Visibility: 6 miles , 10 km
Cloud details: Few Clouds 366 m
Partly cloudy 1219 m
2020/09/25 11:50 EGQA 251150Z 32017KT 9999 FEW012 SCT040 09/// Q1012 RMK BLU
EGQL - RAF Leuchars, United Kingdom
Distance from station: ESE 93mi, 149km
Updated: 28/09/2020 06:50
Clear
Clear
 Wind from W
Wind: W 5 mph , 7 km/h
Temperature: 5°C
Wind Chill: 3°C
Dew Point: 5°C
Humidity: 100%
Barometer: 1010 hPa
Summary: Clear
Visibility: greater than 7 miles , 10 km
2020/09/28 05:50 EGQL 280550Z 28004KT CAVOK 05/05 Q1010 BLU
 
EGPL - Benbecula, United Kingdom
Distance from station: WNW 96mi, 154km
Updated: 28/09/2020 06:50
Light rain, Overcast
Light rain, Overcast
 Wind from S
Wind: S 20 mph , 31 km/h
Temperature: 14°C
Dew Point: 13°C
Humidity: 94%
Barometer: 1002 hPa
Summary: Light rain
Clouds: Overcast
Visibility: 6 miles , 10 km
Cloud details: Mostly cloudy 152 m
Overcast 244 m
2020/09/28 05:50 EGPL 280550Z AUTO 17017KT 9999 -RA BKN005/// OVC008/// 14/13 Q1002 RERA
EGQS - RAF Lossiemouth, United Kingdom
Distance from station: NE 99mi, 160km
Updated: 28/09/2020 05:50
NOT Current
Clear
Clear
 Wind from S
Wind: S 2 mph , 4 km/h
Temperature: 4°C
Dew Point: 2°C
Humidity: 87%
Barometer: 1007 hPa
Clouds: Clear
Visibility: 6 miles , 10 km
2020/09/28 04:50 EGQS 280450Z AUTO 19002KT 9999 // NCD 04/02 Q1007
EGPO - Stornoway, United Kingdom
Distance from station: NNW 111mi, 179km
Updated: 28/09/2020 06:50
Light rain, Mostly cloudy
Light rain, Mostly cloudy
 Wind from S
Wind: S 20 mph , 31 km/h
Temperature: 12°C
Dew Point: 11°C
Humidity: 94%
Barometer: 1003 hPa
Summary: Light rain
Clouds: Mostly cloudy
Visibility: 6 miles , 10 km
Cloud details: Partly cloudy 183 m
Partly cloudy 274 m
Mostly cloudy 335 m
2020/09/28 05:50 EGPO 280550Z 17017KT 9999 -RA SCT006 SCT009 BKN011 12/11 Q1003
 
EGPD - Aberdeen/Dyce, United Kingdom
Distance from station: ENE 118mi, 190km
Updated: 28/09/2020 06:50
Clear
Clear
 Wind from SSE
Wind: SSE 7 mph , 11 km/h
Temperature: 7°C
Wind Chill: 5°C
Dew Point: 4°C
Humidity: 81%
Barometer: 1008 hPa
Clouds: Clear
Visibility: 6 miles , 10 km
2020/09/28 05:50 EGPD 280550Z AUTO 16006KT 9999 NCD 07/04 Q1008 NOSIG
EGAE - Eglinton/Londond, United Kingdom
Distance from station: SSW 138mi, 222km
Updated: 28/09/2020 06:50
Light rain, Mostly cloudy
Light rain, Mostly cloudy
 Wind from SSW
Wind: SSW 15 mph , 24 km/h
Temperature: 15°C
Dew Point: 13°C
Humidity: 88%
Barometer: 1007 hPa
Summary: Light rain
Clouds: Mostly cloudy
Visibility: 6 miles , 10 km
Cloud details: Few Clouds 305 m
Partly cloudy 488 m
Mostly cloudy 914 m
2020/09/28 05:50 EGAE 280550Z 21013KT 9999 -RA FEW010 SCT016 BKN030 15/13 Q1007
EGPC - Wick, United Kingdom
Distance from station: NNE 144mi, 232km
Updated: 28/09/2020 06:50
Clear
Clear
 Wind from S
Wind: S 12 mph , 19 km/h
Temperature: 10°C
Wind Chill: 7°C
Dew Point: 8°C
Humidity: 88%
Barometer: 1006 hPa
Clouds: Clear
Visibility: 6 miles , 10 km
2020/09/28 05:50 EGPC 280550Z AUTO 18010KT 9999 NCD 10/08 Q1006

Metar display script from Saratoga-Weather.org